createdAt,value
2022-10-08T00:00:47.596Z,10.67
2022-10-08T00:03:18.161Z,12.07
2022-10-08T00:05:56.257Z,13.87
2022-10-08T00:08:24.307Z,9.13
2022-10-08T00:10:55.796Z,12.07
2022-10-08T00:13:24.855Z,12.50
2022-10-08T00:15:53.433Z,10.53
2022-10-08T00:18:22.643Z,13.77
2022-10-08T00:20:50.270Z,10.67
2022-10-08T00:23:17.923Z,9.80
2022-10-08T00:25:45.995Z,11.57
2022-10-08T00:28:14.664Z,10.80
2022-10-08T00:30:42.781Z,11.07
2022-10-08T00:33:12.257Z,9.00
2022-10-08T00:35:41.775Z,9.77
2022-10-08T00:38:09.331Z,14.20
2022-10-08T00:40:42.818Z,8.40
2022-10-08T00:43:15.532Z,14.40
2022-10-08T00:45:44.289Z,9.50
2022-10-08T00:48:15.023Z,10.17
2022-10-08T00:50:43.974Z,9.23
2022-10-08T00:53:11.823Z,10.93
2022-10-08T00:55:43.932Z,11.33
2022-10-08T00:58:16.477Z,13.60
2022-10-08T01:00:44.523Z,7.37
2022-10-08T01:03:12.164Z,10.67
2022-10-08T01:05:51.122Z,8.10
2022-10-08T01:08:29.574Z,9.47
2022-10-08T01:11:05.001Z,10.30
2022-10-08T01:13:42.163Z,6.70
2022-10-08T01:16:24.936Z,10.50
2022-10-08T01:18:58.976Z,11.37
2022-10-08T01:21:41.063Z,10.33
2022-10-08T01:24:47.360Z,11.43
2022-10-08T01:27:26.123Z,21.97
2022-10-08T01:29:55.910Z,21.47
2022-10-08T01:32:28.175Z,15.47
2022-10-08T01:35:00.100Z,17.87
2022-10-08T01:37:33.164Z,13.13
2022-10-08T01:40:06.320Z,9.00
2022-10-08T01:42:39.923Z,10.83
2022-10-08T01:45:13.368Z,9.83
2022-10-08T01:47:44.226Z,14.43
2022-10-08T01:50:17.090Z,12.97
2022-10-08T01:52:49.384Z,10.60
2022-10-08T01:55:22.047Z,15.13
2022-10-08T01:57:52.357Z,9.20
2022-10-08T02:00:20.667Z,14.10
2022-10-08T02:02:48.592Z,11.60
2022-10-08T02:05:16.533Z,8.50
2022-10-08T02:07:44.493Z,7.60
2022-10-08T02:10:14.371Z,9.50
2022-10-08T02:12:43.036Z,8.20
2022-10-08T02:15:15.203Z,9.90
2022-10-08T02:17:53.268Z,12.27
2022-10-08T02:20:26.884Z,10.40
2022-10-08T02:23:00.268Z,11.07
2022-10-08T02:25:34.453Z,10.40
2022-10-08T02:28:09.408Z,8.53
2022-10-08T02:30:44.250Z,11.53
2022-10-08T02:33:15.887Z,7.63
2022-10-08T02:35:48.530Z,8.60
2022-10-08T02:38:22.225Z,6.30
2022-10-08T02:40:53.847Z,10.57
2022-10-08T02:43:24.992Z,12.10
2022-10-08T02:45:58.978Z,7.57
2022-10-08T02:48:31.221Z,9.70
2022-10-08T02:51:03.129Z,11.87
2022-10-08T02:53:32.126Z,9.70
2022-10-08T02:56:09.430Z,11.33
2022-10-08T02:58:37.453Z,11.27
2022-10-08T03:01:13.670Z,10.90
2022-10-08T03:03:47.189Z,8.97
2022-10-08T03:06:16.884Z,10.07
2022-10-08T03:08:49.099Z,7.73
2022-10-08T03:11:17.406Z,8.17
2022-10-08T03:13:49.257Z,9.53
2022-10-08T03:16:23.055Z,7.47
2022-10-08T03:18:52.121Z,9.53
2022-10-08T03:21:20.198Z,8.43
2022-10-08T03:23:48.062Z,9.60
2022-10-08T03:26:18.026Z,14.73
2022-10-08T03:28:45.975Z,7.73
2022-10-08T03:31:13.891Z,9.50
2022-10-08T03:33:42.796Z,9.83
2022-10-08T03:36:10.578Z,9.30
2022-10-08T03:38:38.201Z,8.90
2022-10-08T03:41:05.839Z,8.70
2022-10-08T03:43:34.539Z,8.97
2022-10-08T03:46:02.904Z,10.30
2022-10-08T03:48:30.751Z,7.47
2022-10-08T03:51:01.570Z,9.10
2022-10-08T03:53:32.845Z,12.53
2022-10-08T03:56:01.734Z,7.90
2022-10-08T03:58:29.415Z,9.67
2022-10-08T04:00:58.728Z,10.27
2022-10-08T04:03:27.359Z,11.23
2022-10-08T04:05:55.179Z,9.43
2022-10-08T04:08:24.423Z,13.87
2022-10-08T04:10:52.313Z,8.03
2022-10-08T04:13:20.625Z,16.10
2022-10-08T04:15:50.730Z,13.53
2022-10-08T04:18:19.170Z,14.97
2022-10-08T04:20:46.853Z,9.37
2022-10-08T04:23:14.509Z,12.60
2022-10-08T04:25:51.871Z,9.23
2022-10-08T04:28:20.346Z,12.97
2022-10-08T04:30:56.394Z,11.67
2022-10-08T04:33:24.348Z,12.00
2022-10-08T04:35:56.191Z,9.90
2022-10-08T04:38:26.954Z,11.87
2022-10-08T04:41:04.650Z,14.03
2022-10-08T04:43:32.318Z,9.27
2022-10-08T04:46:00.009Z,11.10
2022-10-08T04:48:27.826Z,10.30
2022-10-08T04:50:56.788Z,11.90
2022-10-08T04:53:25.623Z,10.23
2022-10-08T04:55:53.735Z,12.90
2022-10-08T04:58:24.521Z,11.97
2022-10-08T05:00:52.533Z,13.57
2022-10-08T05:03:20.145Z,13.63
2022-10-08T05:05:47.799Z,12.13
2022-10-08T05:08:15.415Z,13.23
2022-10-08T05:10:49.397Z,13.13
2022-10-08T05:13:17.154Z,9.13
2022-10-08T05:15:46.220Z,12.47
2022-10-08T05:18:13.908Z,12.43
2022-10-08T05:20:41.642Z,12.30
2022-10-08T05:23:09.351Z,12.10
2022-10-08T05:25:37.173Z,11.93
2022-10-08T05:28:05.412Z,12.63
2022-10-08T05:30:33.248Z,9.63
2022-10-08T05:33:02.316Z,12.07
2022-10-08T05:35:29.892Z,10.80
2022-10-08T05:37:58.104Z,13.63
2022-10-08T05:40:25.739Z,11.03
2022-10-08T05:42:53.910Z,12.40
2022-10-08T05:45:21.490Z,14.60
2022-10-08T05:47:49.284Z,12.03
2022-10-08T05:50:18.367Z,14.33
2022-10-08T05:52:46.185Z,13.70
2022-10-08T05:55:13.960Z,16.17
2022-10-08T05:57:41.569Z,10.87
2022-10-08T06:00:10.518Z,19.50
2022-10-08T06:02:38.242Z,11.60
2022-10-08T06:05:06.623Z,10.47
2022-10-08T06:07:35.621Z,10.73
2022-10-08T06:10:03.304Z,11.97
2022-10-08T06:12:30.866Z,21.67
2022-10-08T06:14:58.451Z,11.70
2022-10-08T06:17:26.078Z,11.53
2022-10-08T06:19:53.636Z,13.10
2022-10-08T06:22:21.186Z,13.33
2022-10-08T06:24:50.116Z,16.37
2022-10-08T06:27:17.749Z,11.50
2022-10-08T06:29:45.386Z,16.00
2022-10-08T06:32:12.998Z,14.88
2022-10-08T06:34:42.002Z,15.27
2022-10-08T06:37:09.623Z,11.47
2022-10-08T06:39:37.294Z,15.73
2022-10-08T06:42:06.385Z,13.07
2022-10-08T06:44:33.968Z,10.10
2022-10-08T06:47:01.665Z,13.97
2022-10-08T06:49:29.393Z,10.13
2022-10-08T06:51:57.060Z,15.77
2022-10-08T06:54:26.178Z,26.30
2022-10-08T06:56:55.644Z,10.70
2022-10-08T06:59:24.629Z,10.00
2022-10-08T07:01:52.247Z,12.13
2022-10-08T07:04:19.867Z,15.10
2022-10-08T07:06:47.458Z,10.00
2022-10-08T07:09:15.130Z,10.03
2022-10-08T07:11:42.696Z,14.23
2022-10-08T07:14:10.390Z,12.67
2022-10-08T07:16:39.393Z,12.90
2022-10-08T07:19:07.017Z,12.30
2022-10-08T07:21:34.608Z,12.80
2022-10-08T07:24:02.547Z,10.87
2022-10-08T07:26:33.125Z,12.10
2022-10-08T07:29:02.681Z,15.90
2022-10-08T07:31:32.409Z,12.20
2022-10-08T07:34:03.363Z,14.20
2022-10-08T07:36:32.191Z,11.00
2022-10-08T07:39:01.484Z,19.23
2022-10-08T07:41:30.337Z,12.13
2022-10-08T07:43:59.984Z,11.17
2022-10-08T07:46:27.767Z,12.37
2022-10-08T07:48:59.012Z,12.23
2022-10-08T07:51:29.163Z,8.00
2022-10-08T07:54:01.569Z,10.93
2022-10-08T07:56:30.919Z,9.47
2022-10-08T07:58:59.480Z,9.83
2022-10-08T08:01:29.502Z,11.90
2022-10-08T08:03:59.303Z,11.83
2022-10-08T08:06:28.551Z,8.70
2022-10-08T08:08:56.770Z,9.97
2022-10-08T08:11:25.538Z,13.37
2022-10-08T08:13:53.870Z,8.13
2022-10-08T08:16:25.249Z,11.03
2022-10-08T08:18:54.984Z,9.67
2022-10-08T08:21:28.878Z,12.47
2022-10-08T08:23:58.220Z,7.80
2022-10-08T08:26:28.223Z,7.33
2022-10-08T08:28:58.011Z,10.93
2022-10-08T08:31:28.837Z,8.40
2022-10-08T08:33:58.024Z,11.23
2022-10-08T08:36:29.826Z,11.07
2022-10-08T08:38:57.936Z,9.50
2022-10-08T08:41:39.050Z,12.93
2022-10-08T08:44:13.127Z,9.77
2022-10-08T08:46:46.818Z,9.87
2022-10-08T08:49:21.074Z,9.43
2022-10-08T08:51:50.037Z,9.47
2022-10-08T08:54:17.672Z,10.03
2022-10-08T08:56:45.553Z,13.27
2022-10-08T08:59:25.224Z,8.45
2022-10-08T09:01:57.291Z,10.57
2022-10-08T09:04:34.422Z,9.65
2022-10-08T09:07:06.877Z,7.73
2022-10-08T09:09:39.222Z,11.17
2022-10-08T09:12:20.468Z,10.03
2022-10-08T09:14:53.013Z,7.03
2022-10-08T09:17:24.334Z,6.90
2022-10-08T09:19:52.116Z,7.77
2022-10-08T09:52:17.520Z,7.07
2022-10-08T09:54:48.873Z,6.47
2022-10-08T10:22:00.251Z,6.93
2022-10-08T10:24:37.492Z,7.00
2022-10-08T10:27:10.725Z,8.90
2022-10-08T10:29:59.508Z,5.93
2022-10-08T10:32:32.291Z,9.37
2022-10-08T10:35:07.277Z,5.40
2022-10-08T10:37:44.852Z,7.77
2022-10-08T10:40:25.020Z,5.47
2022-10-08T10:43:01.902Z,7.50
2022-10-08T10:45:35.090Z,4.47
2022-10-08T10:48:03.664Z,14.53
2022-10-08T10:50:41.495Z,3.93
2022-10-08T10:53:20.129Z,3.70
2022-10-08T10:55:57.159Z,7.50
2022-10-08T10:58:41.826Z,7.00
2022-10-08T11:01:24.113Z,3.70
2022-10-08T11:04:01.968Z,3.90
2022-10-08T11:06:45.992Z,4.63
2022-10-08T11:09:24.030Z,5.83
2022-10-08T11:11:55.850Z,4.97
2022-10-08T11:14:49.626Z,5.30
2022-10-08T11:17:31.010Z,6.33
2022-10-08T11:20:13.150Z,6.20
2022-10-08T11:22:48.591Z,6.13
2022-10-08T11:25:29.215Z,4.00
2022-10-08T11:28:10.242Z,6.37
2022-10-08T11:30:48.653Z,4.63
2022-10-08T11:33:18.021Z,4.37
2022-10-08T11:35:54.743Z,6.17
2022-10-08T11:38:30.398Z,7.23
2022-10-08T11:41:07.726Z,5.07
2022-10-08T11:43:42.802Z,4.50
2022-10-08T11:46:22.582Z,6.27
2022-10-08T11:48:50.882Z,5.37
2022-10-08T11:51:32.792Z,5.90
2022-10-08T11:54:21.698Z,4.20
2022-10-08T11:56:52.897Z,4.27
2022-10-08T11:59:35.272Z,7.73
2022-10-08T12:02:06.725Z,4.90
2022-10-08T12:04:36.349Z,4.77
2022-10-08T12:07:18.409Z,6.43
2022-10-08T12:10:23.489Z,7.57
2022-10-08T12:13:24.348Z,4.83
2022-10-08T12:16:06.977Z,7.03
2022-10-08T12:18:53.598Z,7.43
2022-10-08T12:21:50.011Z,9.77
2022-10-08T12:24:50.881Z,6.47
2022-10-08T12:27:37.813Z,7.43
2022-10-08T12:30:10.826Z,7.83
2022-10-08T12:32:56.975Z,6.53
2022-10-08T12:35:34.062Z,6.07
2022-10-08T12:38:28.142Z,8.07
2022-10-08T12:41:10.701Z,5.43
2022-10-08T12:43:48.570Z,4.57
2022-10-08T12:46:30.778Z,7.13
2022-10-08T12:49:02.624Z,8.20
2022-10-08T12:51:41.431Z,5.00
2022-10-08T12:54:19.549Z,5.90
2022-10-08T12:56:47.806Z,9.13
2022-10-08T12:59:16.082Z,8.60
2022-10-08T13:01:46.634Z,9.53
2022-10-08T13:04:25.238Z,6.30
2022-10-08T13:06:54.298Z,5.80
2022-10-08T13:09:28.961Z,4.03
2022-10-08T13:12:02.897Z,5.23
2022-10-08T13:14:33.270Z,9.23
2022-10-08T13:17:03.126Z,5.03
2022-10-08T13:19:33.088Z,4.80
2022-10-08T13:22:03.001Z,8.50
2022-10-08T13:24:39.399Z,7.50
2022-10-08T13:27:07.958Z,5.87
2022-10-08T13:29:37.727Z,4.50
2022-10-08T13:32:19.873Z,9.57
2022-10-08T13:34:50.134Z,8.90
2022-10-08T13:37:26.835Z,6.30
2022-10-08T13:39:56.576Z,4.90
2022-10-08T13:42:26.932Z,4.60
2022-10-08T13:44:54.706Z,8.13
2022-10-08T13:47:23.945Z,5.47
2022-10-08T13:49:51.540Z,6.53
2022-10-08T13:52:21.653Z,5.20
2022-10-08T13:54:51.339Z,4.00
2022-10-08T13:57:18.906Z,8.27
2022-10-08T13:59:46.569Z,7.23
2022-10-08T14:02:14.969Z,7.03
2022-10-08T14:04:43.960Z,6.27
2022-10-08T14:07:22.646Z,6.50
2022-10-08T14:09:50.382Z,5.37
2022-10-08T14:12:22.185Z,7.43
2022-10-08T14:14:49.861Z,3.93
2022-10-08T14:17:17.421Z,4.30
2022-10-08T14:19:46.472Z,4.13
2022-10-08T14:22:14.625Z,8.03
2022-10-08T14:24:42.295Z,6.67
2022-10-08T14:27:10.031Z,7.10
2022-10-08T14:29:37.987Z,6.53
2022-10-08T14:32:08.348Z,4.87
2022-10-08T14:34:36.546Z,7.43
2022-10-08T14:37:05.867Z,7.67
2022-10-08T14:39:33.548Z,5.90
2022-10-08T14:42:01.119Z,8.20
2022-10-08T14:44:28.694Z,6.23
2022-10-08T14:46:56.261Z,5.67
2022-10-08T14:49:24.200Z,3.77
2022-10-08T14:51:51.792Z,13.30
2022-10-08T14:54:21.083Z,9.70
2022-10-08T14:56:48.897Z,5.30
2022-10-08T14:59:16.692Z,6.47
2022-10-08T15:01:44.615Z,7.40
2022-10-08T15:04:14.935Z,7.13
2022-10-08T15:06:43.347Z,7.33
2022-10-08T15:09:12.286Z,9.40
2022-10-08T15:11:41.366Z,7.47
2022-10-08T15:14:09.557Z,5.17
2022-10-08T15:16:39.461Z,5.87
2022-10-08T15:19:08.191Z,8.10
2022-10-08T15:21:35.999Z,8.03
2022-10-08T15:24:03.686Z,8.17
2022-10-08T15:26:31.399Z,7.63
2022-10-08T15:29:01.288Z,10.50
2022-10-08T15:31:29.587Z,8.00
2022-10-08T15:33:59.523Z,6.83
2022-10-08T15:36:29.294Z,8.70
2022-10-08T15:38:58.857Z,6.87
2022-10-08T15:41:28.125Z,8.90
2022-10-08T15:43:56.131Z,12.17
2022-10-08T15:46:28.894Z,10.33
2022-10-08T15:48:58.124Z,5.03
2022-10-08T15:51:25.892Z,7.23
2022-10-08T15:53:53.673Z,5.07
2022-10-08T15:56:21.654Z,7.10
2022-10-08T15:58:51.616Z,4.23
2022-10-08T16:01:22.159Z,6.93
2022-10-08T16:03:53.818Z,3.67
2022-10-08T16:06:23.589Z,3.07
2022-10-08T16:08:53.972Z,4.33
2022-10-08T16:11:23.468Z,5.10
2022-10-08T16:13:53.711Z,5.30
2022-10-08T16:16:21.831Z,5.93
2022-10-08T16:18:57.217Z,7.47
2022-10-08T16:21:24.926Z,5.37
2022-10-08T16:23:52.724Z,6.00
2022-10-08T16:26:22.894Z,6.37
2022-10-08T16:28:54.924Z,4.70
2022-10-08T16:31:23.414Z,5.03
2022-10-08T16:33:56.159Z,8.33
2022-10-08T16:36:24.197Z,3.67
2022-10-08T16:38:53.049Z,9.98
2022-10-08T16:41:22.717Z,9.00
2022-10-08T16:43:52.330Z,7.77
2022-10-08T16:46:21.831Z,6.53
2022-10-08T16:48:54.190Z,5.73
2022-10-08T16:51:23.502Z,6.60
2022-10-08T16:53:52.145Z,7.33
2022-10-08T16:56:20.830Z,5.93
2022-10-08T16:58:52.890Z,5.67
2022-10-08T17:01:20.843Z,7.93
2022-10-08T17:03:49.594Z,6.67
2022-10-08T17:06:20.283Z,5.20
2022-10-08T17:08:47.946Z,8.63
2022-10-08T17:11:16.323Z,8.30
2022-10-08T17:13:45.768Z,7.73
2022-10-08T17:16:14.084Z,6.63
2022-10-08T17:18:44.169Z,8.73
2022-10-08T17:21:13.832Z,6.77
2022-10-08T17:23:43.238Z,9.07
2022-10-08T17:26:13.355Z,6.50
2022-10-08T17:28:42.798Z,12.30
2022-10-08T17:31:14.316Z,11.67
2022-10-08T17:33:42.617Z,10.37
2022-10-08T17:36:13.737Z,8.27
2022-10-08T17:38:43.754Z,7.73
2022-10-08T17:41:15.506Z,8.33
2022-10-08T17:43:44.112Z,10.50
2022-10-08T17:46:14.391Z,8.20
2022-10-08T17:48:42.796Z,11.17
2022-10-08T17:51:12.739Z,11.57
2022-10-08T17:53:42.237Z,11.07
2022-10-08T17:56:11.776Z,9.13
2022-10-08T17:58:39.830Z,9.20
2022-10-08T18:01:09.775Z,6.10
2022-10-08T18:03:38.958Z,13.77
2022-10-08T18:06:08.018Z,7.40
2022-10-08T18:08:36.201Z,13.53
2022-10-08T18:11:06.824Z,12.57
2022-10-08T18:13:34.674Z,12.33
2022-10-08T18:16:06.268Z,8.77
2022-10-08T18:18:34.555Z,11.40
2022-10-08T18:21:03.865Z,11.83
2022-10-08T18:23:33.755Z,12.93
2022-10-08T18:26:11.320Z,12.97
2022-10-08T18:28:39.279Z,13.07
2022-10-08T18:31:08.552Z,15.50
2022-10-08T18:33:42.082Z,14.03
2022-10-08T18:36:11.279Z,11.60
2022-10-08T18:38:38.985Z,12.90
2022-10-08T18:41:16.053Z,10.67
2022-10-08T18:43:44.405Z,16.13
2022-10-08T18:46:12.535Z,15.90
2022-10-08T18:48:40.315Z,16.63
2022-10-08T18:51:09.598Z,13.97
2022-10-08T18:53:39.402Z,13.83
2022-10-08T18:56:09.922Z,15.23
2022-10-08T18:58:38.882Z,13.80
2022-10-08T19:01:07.456Z,17.77
2022-10-08T19:03:35.141Z,19.00
2022-10-08T19:06:02.736Z,15.60
2022-10-08T19:08:30.320Z,16.67
2022-10-08T19:10:57.993Z,23.27
2022-10-08T19:13:25.667Z,18.97
2022-10-08T19:15:54.694Z,16.43
2022-10-08T19:18:22.386Z,12.43
2022-10-08T19:20:50.096Z,13.27
2022-10-08T19:23:17.702Z,11.00
2022-10-08T19:25:45.312Z,11.93
2022-10-08T19:28:12.995Z,16.87
2022-10-08T19:30:40.659Z,16.23
2022-10-08T19:33:09.694Z,13.03
2022-10-08T19:35:37.360Z,15.27
2022-10-08T19:38:04.959Z,11.17
2022-10-08T19:40:32.648Z,13.07
2022-10-08T19:43:00.326Z,10.20
2022-10-08T19:45:27.890Z,12.57
2022-10-08T19:47:55.570Z,12.50
2022-10-08T19:50:24.587Z,13.03
2022-10-08T19:52:52.279Z,10.87
2022-10-08T19:55:19.923Z,13.27
2022-10-08T19:57:47.651Z,8.87
2022-10-08T20:00:16.168Z,8.40
2022-10-08T20:02:45.450Z,9.60
2022-10-08T20:05:13.343Z,12.17
2022-10-08T20:07:42.336Z,10.40
2022-10-08T20:10:10.914Z,13.17
2022-10-08T20:12:38.524Z,7.67
2022-10-08T20:15:09.571Z,9.27
2022-10-08T20:17:39.147Z,15.07
2022-10-08T20:20:31.201Z,12.03
2022-10-08T20:22:57.278Z,12.43
2022-10-08T20:25:26.070Z,12.33
2022-10-08T20:27:53.806Z,12.93
2022-10-08T20:30:21.551Z,10.63
2022-10-08T20:32:49.428Z,13.80
2022-10-08T20:35:17.445Z,20.80
2022-10-08T20:37:45.122Z,20.13
2022-10-08T20:40:14.102Z,13.83
2022-10-08T20:42:41.811Z,11.53
2022-10-08T20:45:11.918Z,13.20
2022-10-08T20:47:39.525Z,17.07
2022-10-08T20:50:07.708Z,13.20
2022-10-08T20:52:35.383Z,10.63
2022-10-08T20:55:02.953Z,10.27
2022-10-08T20:57:31.907Z,11.57
2022-10-08T20:59:59.512Z,16.27
2022-10-08T21:02:27.450Z,7.37
2022-10-08T21:04:55.104Z,12.93
2022-10-08T21:07:22.937Z,10.60
2022-10-08T21:09:52.458Z,9.70
2022-10-08T21:12:20.031Z,9.67
2022-10-08T21:14:49.115Z,10.63
2022-10-08T21:17:16.687Z,9.90
2022-10-08T21:19:44.246Z,10.10
2022-10-08T21:22:11.847Z,9.73
2022-10-08T21:24:39.499Z,13.17
2022-10-08T21:27:07.141Z,13.63
2022-10-08T21:29:35.054Z,10.23
2022-10-08T21:32:04.216Z,8.77
2022-10-08T21:34:32.137Z,10.20
2022-10-08T21:36:59.745Z,8.73
2022-10-08T21:39:27.354Z,8.13
2022-10-08T21:41:54.973Z,10.27
2022-10-08T21:44:23.047Z,13.77
2022-10-08T21:46:50.682Z,10.23
2022-10-08T21:49:21.033Z,9.23
2022-10-08T21:51:49.235Z,8.70
2022-10-08T21:54:17.626Z,10.77
2022-10-08T21:56:45.859Z,7.97
2022-10-08T21:59:15.341Z,10.07
2022-10-08T22:01:44.837Z,11.17
2022-10-08T22:04:14.478Z,11.23
2022-10-08T22:06:45.666Z,11.97
2022-10-08T22:09:16.046Z,10.43
2022-10-08T22:11:43.990Z,11.00
2022-10-08T22:14:11.745Z,9.43
2022-10-08T22:16:39.559Z,9.33
2022-10-08T22:19:07.291Z,10.77
2022-10-08T22:21:35.600Z,8.83
2022-10-08T22:24:05.706Z,12.10
2022-10-08T22:26:35.892Z,12.53
2022-10-08T22:29:04.999Z,14.50
2022-10-08T22:31:33.204Z,12.23
2022-10-08T22:34:00.977Z,13.50
2022-10-08T22:36:31.453Z,13.33
2022-10-08T22:38:59.929Z,9.73
2022-10-08T22:41:31.842Z,10.73
2022-10-08T22:44:00.202Z,14.83
2022-10-08T22:46:29.631Z,8.57
2022-10-08T22:48:58.303Z,12.53
2022-10-08T22:51:26.091Z,10.47
2022-10-08T22:53:54.350Z,11.37
2022-10-08T22:56:25.485Z,7.00
2022-10-08T22:58:55.086Z,11.23
2022-10-08T23:01:24.600Z,8.90
2022-10-08T23:03:52.785Z,14.60
2022-10-08T23:06:22.062Z,12.97
2022-10-08T23:08:54.372Z,16.73
2022-10-08T23:11:22.510Z,12.27
2022-10-08T23:13:56.413Z,13.90
2022-10-08T23:16:25.683Z,9.73
2022-10-08T23:18:54.656Z,10.60
2022-10-08T23:21:22.779Z,11.20
2022-10-08T23:23:51.239Z,8.60
2022-10-08T23:26:19.358Z,10.97
2022-10-08T23:28:51.647Z,10.67
2022-10-08T23:31:22.695Z,8.27
2022-10-08T23:33:52.530Z,13.33
2022-10-08T23:36:22.195Z,8.83
2022-10-08T23:38:50.282Z,7.50
2022-10-08T23:41:19.232Z,7.80
2022-10-08T23:43:48.389Z,7.60
2022-10-08T23:46:18.049Z,7.70
2022-10-08T23:48:47.423Z,9.17
2022-10-08T23:51:16.072Z,6.73
2022-10-08T23:53:44.579Z,12.67
2022-10-08T23:56:12.746Z,6.10
2022-10-08T23:58:40.751Z,6.27
